Riceville, Tennessee
Current Conditions -  °F | °C
As of 7:15 PM on Thursday 27 Nov 2014 (Local Time) from KMMI Reporting Station
Clear Clear  
Wind Chill: 25°   Ceiling: Unl
Heat Index: 32°   Visibility: 10mi
Dew Point: 19°   Wind: 8mph
Humidity: 60%   Direction: 310°NW
Pressure: 30.41"   Gusts: NA
Location:  35.38°N, 84.69°W
Report Text: KMMI 280015Z AUTO 31007KT 10SM CLR 00/M07 A3041 RMK
Loading
Personal Weather Stations






























Interactive Weather Map New forecast layout! Learn more

10-Day Weather Forecast

Advertisements
Track Severe Weather on mobile